Terminal Aerodrome Forecast
Issued by NWS

Home | Current Version | Previous Version | Text Only | Print | Product List | Glossary On
Versions: 1 2 3 4 5 6 7 8 9 10 11 12 13 14 15 16 17 18 19 20 21 22 23
000
FTUS41 KCLE 220500
TAFFDY
TAF
KFDY 220529Z 2206/2306 09004KT P6SM BKN250
      TEMPO 2206/2208 6SM BR
     FM220800 11003KT 4SM BR BKN250
      TEMPO 2209/2213 1SM BR
     FM221400 12005KT 6SM HZ SCT045 BKN120
     FM221600 12007KT P6SM OVC045
     FM222000 12007KT P6SM OVC015
     FM230200 12008KT 5SM BR VCSH OVC015=

USA.gov is the U.S. government's official web portal to all federal, state and local government web resources and services.